<?xml version="1.0" encoding="UTF-8" standalone="no" ?>
<gpx xmlns="http://www.topografix.com/GPX/1/1" xmlns:xsi="http://www.w3.org/2001/XMLSchema-instance" xsi:schemaLocation="http://www.topografix.com/GPX/1/1 http://www.topografix.com/GPX/1/1/gpx.xsd" version="1.1" creator="VisuGPX - https://www.visugpx.com">
  <metadata>
    <name>La Route Napoléon à Cheval© dans les Hautes Alpes - Variation du canal du Drac</name>
    <desc><![CDATA[
C'est un parcours de 126 km de de Sisteron à Corps. L'altitude varie de 497 m à 1 709 m. Le dénivelé maximum est de 17 %. La Moyenne Montagne représente 22 % du parcours.

Randonner sur la Route Napoléon à Cheval avec un centre équestre
Les Sabots de Vénus, 2833 route des Baux, 05400 La Roche des Arnauds.

Site internet : http://www.les-sabots-de-venus.com 
Mail : lessabotsdevenus@aol.com  Tél : 06 32 83 11 64 ou 06 43 80 40 31
]]></desc>
  </metadata>
  <trk>
    <name><![CDATA[6805977-Variante du canal du Drac]]></name>
    <trkseg>
      <trkpt lat="44.56864" lon="6.03315">
        <ele>1138</ele>
        <time>2018-05-15T21:27:21Z</time>
      </trkpt>
      <trkpt lat="44.56867" lon="6.03422">
        <ele>1114</ele>
        <time>2018-05-15T21:28:21Z</time>
      </trkpt>
      <trkpt lat="44.56711" lon="6.03684">
        <ele>1061</ele>
        <time>2018-05-15T21:29:21Z</time>
      </trkpt>
      <trkpt lat="44.56824" lon="6.03714">
        <ele>1062</ele>
        <time>2018-05-15T21:30:21Z</time>
      </trkpt>
      <trkpt lat="44.56861" lon="6.03757">
        <ele>1059</ele>
        <time>2018-05-15T21:31:21Z</time>
      </trkpt>
      <trkpt lat="44.5684" lon="6.03813">
        <ele>1057</ele>
        <time>2018-05-15T21:32:21Z</time>
      </trkpt>
      <trkpt lat="44.56781" lon="6.03821">
        <ele>1047</ele>
        <time>2018-05-15T21:33:21Z</time>
      </trkpt>
      <trkpt lat="44.56671" lon="6.03916">
        <ele>1023</ele>
        <time>2018-05-15T21:34:21Z</time>
      </trkpt>
      <trkpt lat="44.56702" lon="6.04109">
        <ele>1035</ele>
        <time>2018-05-15T21:35:21Z</time>
      </trkpt>
      <trkpt lat="44.56809" lon="6.04223">
        <ele>1042</ele>
        <time>2018-05-15T21:36:21Z</time>
      </trkpt>
      <trkpt lat="44.56859" lon="6.04152">
        <ele>1053</ele>
        <time>2018-05-15T21:37:21Z</time>
      </trkpt>
      <trkpt lat="44.57023" lon="6.04087">
        <ele>1078</ele>
        <time>2018-05-15T21:38:21Z</time>
      </trkpt>
      <trkpt lat="44.57081" lon="6.04087">
        <ele>1085</ele>
        <time>2018-05-15T21:39:21Z</time>
      </trkpt>
      <trkpt lat="44.57113" lon="6.0404">
        <ele>1094</ele>
        <time>2018-05-15T21:40:21Z</time>
      </trkpt>
      <trkpt lat="44.57194" lon="6.04087">
        <ele>1102</ele>
        <time>2018-05-15T21:41:21Z</time>
      </trkpt>
      <trkpt lat="44.57266" lon="6.04167">
        <ele>1106</ele>
        <time>2018-05-15T21:42:21Z</time>
      </trkpt>
      <trkpt lat="44.57301" lon="6.04181">
        <ele>1110</ele>
        <time>2018-05-15T21:43:21Z</time>
      </trkpt>
      <trkpt lat="44.57306" lon="6.0414">
        <ele>1115</ele>
        <time>2018-05-15T21:44:21Z</time>
      </trkpt>
      <trkpt lat="44.573" lon="6.04116">
        <ele>1118</ele>
        <time>2018-05-15T21:45:21Z</time>
      </trkpt>
      <trkpt lat="44.57347" lon="6.04129">
        <ele>1124</ele>
        <time>2018-05-15T21:46:21Z</time>
      </trkpt>
      <trkpt lat="44.5735" lon="6.0408">
        <ele>1132</ele>
        <time>2018-05-15T21:47:21Z</time>
      </trkpt>
      <trkpt lat="44.57352" lon="6.04035">
        <ele>1136</ele>
        <time>2018-05-15T21:48:21Z</time>
      </trkpt>
      <trkpt lat="44.57284" lon="6.03915">
        <ele>1135</ele>
        <time>2018-05-15T21:49:21Z</time>
      </trkpt>
    </trkseg>
  </trk>
</gpx>